BE855 / G-PRPK 7700 Squawk Report (17th of September, 2019)

Aircraft DH8D Reg No. G-PRPK Age N/A
Model DHC-8 Turboprop engines 2 First flight N/A
Registered 06-02-17 Rollout N/A Delivered 23-04-08
Construction No. 4203 Line No. N/A Series Q-402
ADSHEX 407299 Airline name FlyBE Owner N/A
Airfield based Exeter~Devon~G First tracked 2017-07-13 06:24:00

Flight history for G-PRPK

Route Flight No Date Playback
City (LCY) - Dusseldorf (DUS) BE1409 2019-10-21 19:44:00
Manchester (MAN) - Edinburgh (EDI) BE291 2019-10-21 19:05:00
Dusseldorf (DUS) - City (LCY) BE1408 2019-10-21 18:46:00
Leeds Bradford (LBA) - Dusseldorf (DUS) BE1495 2019-10-21 15:36:00
Dusseldorf (DUS) - Leeds Bradford (LBA) BE1494 2019-10-21 12:18:00
City (LCY) - Dusseldorf (DUS) BE1401 2019-10-21 08:48:00
Exeter (EXT) - City (LCY) BE1301 2019-10-21 07:46:00
???? N/A 2019-10-18 21:18:00
Exeter (EXT) - Glasgow (GLA) BE536 2019-10-18 19:06:00
Robin Hood Doncaster Sheffield Airport (DSA) - Belfast City (BHD) BE4483 2019-10-18 18:12:00
Manchester (MAN) - Dusseldorf (DUS) BE941 2019-10-18 14:43:00
Belfast City (BHD) - Manchester (MAN) BE489 2019-10-18 13:04:00
Heathrow (LHR) - Edinburgh (EDI) BE2104 2019-10-18 11:27:00
Edinburgh (EDI) - Heathrow (LHR) BE2103 2019-10-18 09:29:00
Belfast City (BHD) - Edinburgh (EDI) BE680 2019-10-18 06:47:00
Edinburgh (EDI) - Belfast City (BHD) BE697 2019-10-17 20:04:00
Glasgow (GLA) - Cardiff (CWL) - Charles De Gaulle (CDG) BE739 2019-10-17 18:36:00
Edinburgh (EDI) - Heathrow (LHR) BE2107 2019-10-17 16:12:00
Belfast City (BHD) - Edinburgh (EDI) BE688 2019-10-17 13:55:00
Manchester (MAN) - Belfast City (BHD) BE476 2019-10-17 11:21:00
Time Lat Lon Altitude Heading Speed Vertical Rate
2019-09-17 21:27:44 GMT 52.633354 -1.945778 4,000 145 196 -1320
2019-09-17 21:27:33 GMT 52.641796 -1.955356 4,225 141 215 -1080
2019-09-17 21:27:18 GMT 52.653522 -1.971073 4,475 140 233 -840
2019-09-17 21:27:07 GMT 52.670536 -1.994518 4,700 139 218 -1020
2019-09-17 21:26:57 GMT 52.670536 -1.994518 4,875 141 226 -1080
2019-09-17 21:26:47 GMT 52.678635 -2.003630 5,050 148 215 0
2019-09-17 21:26:36 GMT 52.688942 -2.012864 5,200 167 229 -840
2019-09-17 21:26:26 GMT 52.698185 -2.021312 5,400 158 223 -1620
2019-09-17 21:26:16 GMT 52.707958 -2.028449 5,575 160 240 -960
2019-09-17 21:26:01 GMT 52.724010 -2.034764 5,775 169 248 -1680
2019-09-17 21:25:50 GMT 52.736870 -2.035037 6,000 184 263 0
2019-09-17 21:25:39 GMT 52.749573 -2.035224 6,225 170 210 -1140
2019-09-17 21:25:28 GMT 52.763657 -2.036137 6,425 189 199 -1320
2019-09-17 21:25:18 GMT 52.789349 -2.036133 6,600 178 284 -2100
2019-09-17 21:25:07 GMT 52.789349 -2.036133 6,900 179 262 -1920
2019-09-17 21:24:57 GMT 52.801788 -2.036070 7,175 176 166 -1380
2019-09-17 21:24:43 GMT 52.818882 -2.036176 7,525 168 279 -1620
2019-09-17 21:24:33 GMT 52.843544 -2.046059 7,800 160 284 -600
2019-09-17 21:24:23 GMT 52.843544 -2.046059 8,050 161 276 -1020
2019-09-17 21:24:13 GMT 52.856651 -2.053386 8,250 161 275 -1920
2019-09-17 21:23:59 GMT 52.873371 -2.062490 8,525 161 291 -1500
2019-09-17 21:23:49 GMT 52.899441 -2.077327 8,725 161 280 -480
2019-09-17 21:23:38 GMT 52.899441 -2.077327 8,925 161 282 0
2019-09-17 21:23:24 GMT 52.916817 -2.086796 9,000 162 274 0
2019-09-17 21:23:13 GMT 52.930901 -2.094429 9,000 160 301 0
2019-09-17 21:23:02 GMT 52.943588 -2.101977 9,000 163 286 0
2019-09-17 21:22:52 GMT 52.956039 -2.107667 9,000 160 288 0
2019-09-17 21:22:42 GMT 52.968178 -2.114883 9,000 160 304 0
2019-09-17 21:22:30 GMT 52.996029 -2.131427 9,000 158 277 0
2019-09-17 21:22:20 GMT 53.009956 -2.138949 9,000 162 285 0
2019-09-17 21:22:10 GMT 53.022099 -2.145604 9,000 160 275 0
2019-09-17 21:22:00 GMT 53.022099 -2.145604 9,000 160 289 0
2019-09-17 21:21:50 GMT 53.034317 -2.153068 9,000 162 288 0
2019-09-17 21:21:40 GMT 53.060257 -2.167591 9,000 151 285 0
2019-09-17 21:21:29 GMT 53.060257 -2.167591 9,000 150 290 0
2019-09-17 21:21:15 GMT 53.076321 -2.185179 9,000 180 314 0
2019-09-17 21:21:03 GMT 53.093472 -2.186859 9,000 160 284 0
2019-09-17 21:20:52 GMT 53.107048 -2.194994 9,000 162 307 0
2019-09-17 21:20:41 GMT 53.121944 -2.202971 9,000 162 285 0
2019-09-17 21:20:31 GMT 53.133854 -2.210156 9,000 165 326 0
2019-09-17 21:20:21 GMT 53.147038 -2.217118 9,000 160 305 0
2019-09-17 21:20:10 GMT 53.160881 -2.225175 9,000 161 295 0
2019-09-17 21:19:59 GMT 53.175774 -2.233895 9,000 164 301 0
2019-09-17 21:19:49 GMT 53.189251 -2.241118 9,000 161 293 0
2019-09-17 21:19:39 GMT 53.202950 -2.247705 9,000 157 270 0
2019-09-17 21:19:28 GMT 53.215591 -2.257293 9,000 167 315 0
2019-09-17 21:19:18 GMT 53.244457 -2.272043 9,000 160 319 0
2019-09-17 21:19:07 GMT 53.244457 -2.272043 9,000 162 306 0
2019-09-17 21:18:56 GMT 53.258141 -2.279591 9,000 160 312 0
2019-09-17 21:18:44 GMT 53.274052 -2.289918 9,000 161 299 0
2019-09-17 21:18:34 GMT 53.286423 -2.297096 9,000 161 304 0
2019-09-17 21:18:23 GMT 53.300854 -2.305910 9,000 162 313 0
2019-09-17 21:18:12 GMT 53.316051 -2.314026 9,000 164 299 0
2019-09-17 21:18:01 GMT 53.330563 -2.322469 9,000 162 308 0
2019-09-17 21:17:50 GMT 53.358074 -2.338068 9,000 157 301 0
2019-09-17 21:17:40 GMT 53.358074 -2.338068 9,000 160 290 0
2019-09-17 21:17:28 GMT 53.388138 -2.355184 9,000 161 285 0
2019-09-17 21:17:17 GMT 53.388138 -2.355184 9,000 162 262 0
2019-09-17 21:17:06 GMT 53.402260 -2.363344 9,000 161 304 0
2019-09-17 21:16:55 GMT 53.416939 -2.371588 9,000 167 317 0
2019-09-17 21:16:43 GMT 53.432823 -2.379789 9,000 160 302 0
2019-09-17 21:16:30 GMT 53.450020 -2.389779 9,000 166 315 0
2019-09-17 21:16:20 GMT 53.463360 -2.396278 9,000 161 308 0
2019-09-17 21:16:07 GMT 53.495457 -2.413125 9,000 162 281 0
2019-09-17 21:15:56 GMT 53.511982 -2.423214 9,000 156 318 0
2019-09-17 21:15:44 GMT 53.511982 -2.423214 9,000 158 306 0
2019-09-17 21:15:34 GMT 53.524189 -2.432093 9,000 151 298 0
2019-09-17 21:15:24 GMT 53.537189 -2.444349 9,000 146 292 0
2019-09-17 21:15:14 GMT 53.562019 -2.471212 9,000 148 310 0
2019-09-17 21:15:03 GMT 53.562019 -2.471212 9,000 144 279 0
2019-09-17 21:14:53 GMT 53.572510 -2.483885 9,000 148 315 0
2019-09-17 21:14:42 GMT 53.586605 -2.497400 9,000 146 293 0
2019-09-17 21:14:31 GMT 53.599377 -2.511687 9,000 148 294 0
2019-09-17 21:14:21 GMT 53.611027 -2.523550 9,000 151 324 0
2019-09-17 21:14:10 GMT 53.625244 -2.535964 9,000 147 260 0
2019-09-17 21:14:00 GMT 53.637592 -2.545286 9,000 156 321 0
2019-09-17 21:13:50 GMT 53.650822 -2.554663 9,000 155 318 0
2019-09-17 21:13:40 GMT 53.677643 -2.575564 9,000 156 337 0
2019-09-17 21:13:30 GMT 53.677643 -2.575564 9,000 155 316 0
2019-09-17 21:13:18 GMT 53.690895 -2.586511 9,000 159 323 0
2019-09-17 21:13:08 GMT 53.702347 -2.594279 9,000 157 400 0
2019-09-17 21:12:57 GMT 53.717457 -2.605490 9,000 156 318 0
2019-09-17 21:12:42 GMT 53.736496 -2.619820 9,000 158 299 0
2019-09-17 21:12:29 GMT 53.754688 -2.633749 9,000 163 303 0
2019-09-17 21:12:19 GMT 53.766132 -2.639827 9,000 160 362 0
2019-09-17 21:12:09 GMT 53.781895 -2.649441 9,000 160 284 0
2019-09-17 21:11:58 GMT 53.796169 -2.658686 9,000 157 313 0
2019-09-17 21:11:45 GMT 53.814278 -2.671608 9,000 157 314 0
2019-09-17 21:11:32 GMT 53.831814 -2.683722 9,000 157 304 0
2019-09-17 21:11:19 GMT 53.861980 -2.704955 9,000 157 299 -60
2019-09-17 21:11:09 GMT 53.861980 -2.704955 9,000 157 309 0
2019-09-17 21:10:59 GMT 53.875275 -2.714442 9,025 156 288 0
2019-09-17 21:10:47 GMT 53.889992 -2.725106 9,025 155 300 -60
2019-09-17 21:10:36 GMT 53.904449 -2.736256 9,025 156 284 0
2019-09-17 21:10:26 GMT 53.917252 -2.745951 9,025 156 302 -60
2019-09-17 21:10:16 GMT 53.929825 -2.755185 9,075 156 303 -1680
2019-09-17 21:10:06 GMT 53.942486 -2.764476 9,100 156 303 -1560
2019-09-17 21:09:50 GMT 53.963058 -2.779933 9,425 155 297 -600
2019-09-17 21:09:39 GMT 53.990150 -2.800681 9,725 155 289 -1320
2019-09-17 21:09:28 GMT 53.990150 -2.800681 9,900 156 300 -1080
2019-09-17 21:09:18 GMT 54.003120 -2.810292 10,250 156 305 -2340
2019-09-17 21:09:01 GMT 54.025185 -2.826488 10,675 156 342 -2580
2019-09-17 21:08:49 GMT 54.056362 -2.849299 11,100 157 329 -2880
2019-09-17 21:08:39 GMT 54.056362 -2.849299 11,325 157 329 -2880
2019-09-17 21:08:23 GMT 54.099327 -2.879618 12,000 157 351 -2640
2019-09-17 21:08:09 GMT 54.099327 -2.879618 12,550 157 351 -2640
2019-09-17 21:07:57 GMT 54.117210 -2.892111 13,200 158 350 -1980
2019-09-17 21:07:46 GMT 54.133308 -2.902958 13,775 158 341 -1500
2019-09-17 21:07:34 GMT 54.151337 -2.915450 14,075 158 362 -2280
2019-09-17 21:07:23 GMT 54.168434 -2.927181 14,550 157 363 -4620
2019-09-17 21:07:11 GMT 54.187130 -2.940248 15,150 157 338 -3300
2019-09-17 21:06:58 GMT 54.205917 -2.953671 15,700 154 367 -1440
2019-09-17 21:06:47 GMT 54.222839 -2.967216 16,075 148 371 -2280
2019-09-17 21:06:37 GMT 54.258049 -3.003956 16,500 146 365 -3660
2019-09-17 21:06:23 GMT 54.258049 -3.003956 17,025 145 351 -2520
2019-09-17 21:06:11 GMT 54.274731 -3.024136 17,700 143 331 -2700
2019-09-17 21:06:01 GMT 54.287666 -3.041131 18,075 145 400 -2880
2019-09-17 21:05:50 GMT 54.303577 -3.059314 18,575 138 402 -3660
2019-09-17 21:05:39 GMT 54.318829 -3.082786 19,075 154 374 60
2019-09-17 21:05:29 GMT 54.335995 -3.095816 19,500 143 378 -1740
2019-09-17 21:05:18 GMT 54.349556 -3.116300 19,900 145 403 -4500
2019-09-17 21:05:07 GMT 54.366383 -3.136456 20,475 142 345 -2820
2019-09-17 21:04:57 GMT 54.380405 -3.153958 20,875 144 417 -3840
2019-09-17 21:04:46 GMT 54.415062 -3.199403 21,575 142 408 -2640
2019-09-17 21:04:33 GMT 54.415062 -3.199403 22,050 144 403 -2460
2019-09-17 21:04:23 GMT 54.445133 -3.235299 22,625 146 396 -2880
2019-09-17 21:04:13 GMT 54.445133 -3.235299 23,350 144 401 -2640
2019-09-17 21:04:03 GMT 54.460285 -3.253828 23,450 145 423 -3480
2019-09-17 21:03:53 GMT 54.475700 -3.272266 24,000 147 393 -3180
2019-09-17 21:03:42 GMT 54.492188 -3.291421 24,625 146 439 -420
2019-09-17 21:03:31 GMT 54.528938 -3.335960 25,000 143 407 0
2019-09-17 21:03:19 GMT 54.528938 -3.335960 25,000 142 406 0
2019-09-17 21:03:09 GMT 54.544102 -3.354533 25,000 142 393 0
2019-09-17 21:02:59 GMT 54.558636 -3.373427 25,000 143 436 0
2019-09-17 21:02:49 GMT 54.573311 -3.391537 25,000 143 436 0
2019-09-17 21:02:39 GMT 54.588638 -3.410446 25,000 144 417 0
2019-09-17 21:02:28 GMT 54.605949 -3.431729 25,000 143 377 0
2019-09-17 21:02:18 GMT 54.621227 -3.450160 25,000 144 456 0
2019-09-17 21:02:08 GMT 54.635979 -3.469446 25,000 147 372 0
2019-09-17 21:01:58 GMT 54.651337 -3.488054 25,000 141 405 0
2019-09-17 21:01:48 GMT 54.665680 -3.507491 25,000 143 393 0
2019-09-17 21:01:38 GMT 54.680214 -3.524902 25,000 142 420 0
2019-09-17 21:01:28 GMT 54.694794 -3.544647 25,000 142 388 0
2019-09-17 21:01:18 GMT 54.708755 -3.563255 25,000 142 390 0
2019-09-17 21:01:06 GMT 54.725906 -3.586149 25,000 140 394 -60
2019-09-17 21:00:56 GMT 54.739979 -3.606226 25,000 140 400 -60
2019-09-17 21:00:46 GMT 54.753654 -3.625219 25,000 142 372 0
2019-09-17 21:00:34 GMT 54.770252 -3.647578 25,025 146 372 60
2019-09-17 21:00:24 GMT 54.783932 -3.663371 25,025 155 380 0
2019-09-17 21:00:14 GMT 54.799931 -3.676086 25,000 157 373 120
2019-09-17 21:00:04 GMT 54.816032 -3.683000 25,000 168 319 120
2019-09-17 20:59:54 GMT 54.831009 -3.688070 24,975 170 340 60
2019-09-17 20:59:43 GMT 54.847973 -3.692766 24,975 167 357 1140
2019-09-17 20:59:32 GMT 54.881447 -3.704481 24,925 168 333 1080
2019-09-17 20:59:22 GMT 54.881447 -3.704481 24,800 169 352 1080
2019-09-17 20:59:12 GMT 54.895889 -3.708353 24,650 167 347 960
2019-09-17 20:59:01 GMT 54.913624 -3.714864 24,400 169 323 900
2019-09-17 20:58:50 GMT 54.930458 -3.721511 24,200 170 312 1200
2019-09-17 20:58:40 GMT 54.945129 -3.724657 24,050 171 319 1200
2019-09-17 20:58:30 GMT 54.960716 -3.731290 23,850 165 343 2280
2019-09-17 20:58:19 GMT 54.977596 -3.736745 23,575 168 338 1320
2019-09-17 20:58:09 GMT 54.992371 -3.741987 23,375 169 356 4560
2019-09-17 20:57:58 GMT 55.009712 -3.747637 23,150 169 348 3600
2019-09-17 20:57:48 GMT 55.024925 -3.752910 22,925 171 332 -660
2019-09-17 20:57:37 GMT 55.042721 -3.756105 22,700 185 314 720
2019-09-17 20:57:24 GMT 55.061657 -3.753094 22,450 190 325 1020
2019-09-17 20:57:12 GMT 55.080334 -3.747276 22,200 191 314 1020
2019-09-17 20:57:02 GMT 55.094574 -3.742127 21,950 190 339 1500
2019-09-17 20:56:52 GMT 55.123890 -3.732968 21,700 189 289 1380
2019-09-17 20:56:42 GMT 55.123890 -3.732968 21,525 191 336 2460
2019-09-17 20:56:32 GMT 55.139168 -3.727755 21,325 190 306 1020
2019-09-17 20:56:21 GMT 55.175869 -3.715435 21,000 191 346 1020
2019-09-17 20:56:08 GMT 55.175869 -3.715435 20,725 191 312 1260
2019-09-17 20:55:57 GMT 55.192703 -3.712818 20,500 198 306 1260
2019-09-17 20:55:46 GMT 55.207813 -3.704565 20,300 208 385 1380
2019-09-17 20:55:36 GMT 55.223454 -3.689495 20,000 184 315 1080
2019-09-17 20:55:25 GMT 55.256813 -3.687425 19,700 191 354 1740
2019-09-17 20:55:14 GMT 55.256813 -3.687425 19,525 190 319 1500
2019-09-17 20:55:04 GMT 55.271709 -3.683060 19,250 191 320 900
2019-09-17 20:54:53 GMT 55.287689 -3.677475 19,025 191 340 1500
2019-09-17 20:54:42 GMT 55.319683 -3.666082 18,725 192 328 1140
2019-09-17 20:54:32 GMT 55.319683 -3.666082 18,475 190 331 1380
2019-09-17 20:54:21 GMT 55.336277 -3.660833 18,225 190 317 2760
2019-09-17 20:54:10 GMT 55.353271 -3.655596 17,875 192 321 1080
2019-09-17 20:53:58 GMT 55.370705 -3.648983 17,675 189 309 1740
2019-09-17 20:53:48 GMT 55.386379 -3.644270 17,375 191 326 4800
2019-09-17 20:53:38 GMT 55.415359 -3.634217 17,125 190 311 -2340
2019-09-17 20:53:28 GMT 55.430958 -3.628909 16,850 190 348 1320
2019-09-17 20:53:18 GMT 55.430958 -3.628909 16,700 191 315 1800
2019-09-17 20:53:07 GMT 55.446728 -3.623482 16,425 191 301 1560
2019-09-17 20:52:56 GMT 55.461784 -3.618252 16,200 191 326
2019-09-17 20:52:46 GMT 55.476913 -3.612975 15,975 194 335

Making use of Plane Finder data

You are free to use the raw flight data, aircraft information and images provided in this report for your own purposes provided the data is correctly attributed to Plane Finder. We ask that you please credit Plane Finder and link to planefinder.net in close proximity to the content.

Optionally one of the following logos (no smaller then 150x24px) can be used and must link to planefinder.net

Embedding the Plane Finder map

You are welcome to embed the Plane Finder playback map on your website to offer visitors a more interactive experience. We suggest using the following HTML code:

<iframe src="//planefinder.net/data/report/BE855-G-PRPK-7700-squawk-2019-09-17/map" width="800" height="600" seamless="seamless"></iframe>

Where our data comes from

Plane Finder has a global network of data feeds and antenna radars that receive data broadcast directly from aircraft. The primary technologies used are ADS-B and MLAT. We also show feeds from the FAA and a FLARM glider feed.

Click here to find out more about the Plane Finder network.

How we collect our data